Terminal Aerodrome Forecast
Issued by NWS Shreveport, LA

Home | Current Version | Previous Version | Text Only | Print | Product List | Glossary On
Versions: 1 2 3 4 5 6 7 8 9 10 11 12 13 14 15 16 17 18
000
FTUS44 KSHV 221100 RRA
TAFGGG
TAF
KGGG 221147Z 2212/2312 13007KT P6SM OVC026
     FM221600 15011KT P6SM BKN035 OVC150
     FM221800 15010KT P6SM BKN045
     FM230100 12008KT P6SM OVC025
      TEMPO 2301/2304 2SM +TSRA BKN008 OVC025CB
     FM230400 12008KT 1 1/2SM -RA BR OVC008
      TEMPO 2304/2308 3SM TSRA BKN008 OVC025CB=

USA.gov is the U.S. government's official web portal to all federal, state and local government web resources and services.